Time;durP1;ratioP1;P1;durP2;ratioP2;P2;SDS_P1;SDS_P2;PMS_P1;PMS_P2;Temp;Humidity;BMP_temperature;BMP_pressure;BME280_temperature;BME280_humidity;BME280_pressure;Samples;Min_cycle;Max_cycle;Signal;HPM_P1;HPM_P2
2021/06/12 00:00:25;;;;;;;6.10;3.83;;;;;;;19.76;63.96;100300.94;5014968;28;20037;-62
2021/06/12 00:02:53;;;;;;;5.63;3.38;;;;;;;19.75;64.45;100299.19;5014039;28;20050;-62
2021/06/12 00:05:24;;;;;;;3.10;2.80;;;;;;;19.73;64.36;100290.47;5015417;28;20137;-62
2021/06/12 00:07:52;;;;;;;3.38;2.85;;;;;;;19.72;64.51;100286.94;5015492;28;20466;-62
2021/06/12 00:10:27;;;;;;;4.07;2.88;;;;;;;19.71;64.20;100294.88;5014024;28;20375;-60
2021/06/12 00:12:53;;;;;;;5.05;3.42;;;;;;;19.70;64.73;100286.09;5015185;28;20049;-61
2021/06/12 00:15:20;;;;;;;3.08;2.58;;;;;;;19.70;64.47;100277.38;5015449;28;20041;-62
2021/06/12 00:17:47;;;;;;;3.72;3.35;;;;;;;19.68;64.77;100274.78;5015084;28;20497;-60
2021/06/12 00:20:34;;;;;;;3.63;3.13;;;;;;;19.66;64.24;100276.56;5015095;28;20133;-62
2021/06/12 00:23:00;;;;;;;4.20;3.22;;;;;;;19.65;64.71;100273.94;5013989;28;20406;-62
2021/06/12 00:25:28;;;;;;;3.90;3.25;;;;;;;19.63;64.67;100268.72;5014788;28;20042;-62
2021/06/12 00:27:58;;;;;;;6.07;3.42;;;;;;;19.61;64.93;100271.41;5013659;28;20053;-62
2021/06/12 00:30:27;;;;;;;5.70;3.50;;;;;;;19.59;64.65;100265.28;5015201;28;20041;-62
2021/06/12 00:32:56;;;;;;;5.93;3.15;;;;;;;19.58;64.60;100265.31;5015277;28;20038;-62
2021/06/12 00:35:25;;;;;;;6.57;4.00;;;;;;;19.55;64.62;100260.97;4997332;28;20046;-62
2021/06/12 00:37:53;;;;;;;5.47;3.65;;;;;;;19.53;64.79;100265.38;5014399;28;20416;-62
2021/06/12 00:40:20;;;;;;;6.53;3.70;;;;;;;19.51;64.85;100264.53;5014303;28;20069;-62
2021/06/12 00:42:46;;;;;;;5.90;3.38;;;;;;;19.49;64.73;100279.47;5014750;28;20038;-62
2021/06/12 00:45:18;;;;;;;5.07;3.85;;;;;;;19.46;64.46;100280.41;5014599;28;20037;-62
2021/06/12 00:47:49;;;;;;;4.85;3.55;;;;;;;19.45;64.78;100270.78;4997049;28;20412;-62
2021/06/12 00:50:16;;;;;;;5.25;3.20;;;;;;;19.45;65.03;100273.41;5014493;28;20544;-61
2021/06/12 00:52:42;;;;;;;4.20;3.80;;;;;;;19.43;64.73;100275.19;5014543;28;20037;-62
2021/06/12 00:55:14;;;;;;;3.42;2.83;;;;;;;19.43;64.69;100269.94;5014509;28;20046;-62
2021/06/12 00:57:40;;;;;;;5.32;3.35;;;;;;;19.41;64.91;100269.09;5013830;28;20084;-62
2021/06/12 01:00:09;;;;;;;3.55;2.80;;;;;;;19.39;64.92;100264.75;5014740;28;20026;-62
2021/06/12 01:02:37;;;;;;;5.95;3.30;;;;;;;19.38;64.90;100269.16;5014119;28;20053;-62
2021/06/12 01:05:06;;;;;;;5.43;3.63;;;;;;;19.38;64.96;100278.78;5014402;28;20041;-62
2021/06/12 01:07:35;;;;;;;7.25;3.63;;;;;;;19.35;64.86;100271.84;5013062;28;20370;-62
2021/06/12 01:10:00;;;;;;;6.00;3.45;;;;;;;19.33;65.14;100271.00;5014163;28;20057;-61
2021/06/12 01:12:42;;;;;;;4.25;3.47;;;;;;;19.31;64.95;100260.50;5012574;28;20033;-62
2021/06/12 01:15:11;;;;;;;7.30;3.75;;;;;;;19.29;64.93;100264.94;5014415;28;20045;-62
2021/06/12 01:17:51;;;;;;;6.75;3.80;;;;;;;19.28;64.81;100267.56;4996786;28;20034;-62
2021/06/12 01:20:38;;;;;;;4.97;3.25;;;;;;;19.25;64.78;100268.50;5014663;28;20508;-60
2021/06/12 01:23:10;;;;;;;4.22;3.50;;;;;;;19.24;64.85;100272.00;4996837;28;20034;-60
2021/06/12 01:26:14;;;;;;;5.22;3.65;;;;;;;19.22;64.71;100270.31;5012835;28;20045;-61
2021/06/12 01:28:57;;;;;;;6.20;3.40;;;;;;;19.19;64.80;100268.56;5002356;28;20104;-61
2021/06/12 01:31:24;;;;;;;3.80;3.38;;;;;;;19.17;65.05;100260.72;5014001;28;20037;-61
2021/06/12 01:33:53;;;;;;;5.82;3.15;;;;;;;19.16;64.82;100264.25;5012812;28;20041;-61
2021/06/12 01:36:19;;;;;;;5.13;3.15;;;;;;;19.16;65.32;100264.25;4996209;28;20118;-61
2021/06/12 01:38:49;;;;;;;5.93;3.10;;;;;;;19.14;65.17;100260.78;5013926;28;20222;-61
2021/06/12 01:41:20;;;;;;;5.97;3.25;;;;;;;19.13;65.03;100266.91;5014097;28;20038;-61
2021/06/12 01:43:48;;;;;;;6.50;3.63;;;;;;;19.12;65.25;100267.81;5013650;28;20042;-60
2021/06/12 01:46:19;;;;;;;8.20;3.38;;;;;;;19.10;64.93;100266.09;5012944;28;20038;-61
2021/06/12 01:48:46;;;;;;;5.70;3.03;;;;;;;19.09;65.28;100273.09;5012210;28;20125;-61
2021/06/12 01:51:16;;;;;;;5.70;3.55;;;;;;;19.06;65.13;100262.69;5012529;28;20145;-61
2021/06/12 01:53:43;;;;;;;5.60;3.67;;;;;;;19.07;65.34;100267.03;5012290;28;20128;-61
2021/06/12 01:56:12;;;;;;;6.20;3.67;;;;;;;19.05;64.98;100265.31;5013702;28;20042;-61
2021/06/12 01:58:48;;;;;;;6.07;3.25;;;;;;;19.04;64.93;100266.19;5013699;28;20053;-61
2021/06/12 02:01:16;;;;;;;5.00;3.78;;;;;;;18.99;65.36;100267.16;5013882;28;20477;-61
2021/06/12 02:03:45;;;;;;;5.25;3.78;;;;;;;18.99;65.30;100266.28;5011960;28;20057;-61
2021/06/12 02:06:18;;;;;;;5.70;3.47;;;;;;;18.97;65.46;100271.56;5012191;28;20057;-61
2021/06/12 02:08:47;;;;;;;5.90;3.13;;;;;;;18.96;65.15;100263.69;5013628;28;20528;-61
2021/06/12 02:11:16;;;;;;;5.15;3.13;;;;;;;18.96;65.27;100267.19;4996134;28;20034;-61
2021/06/12 02:13:44;;;;;;;7.47;3.30;;;;;;;18.96;65.51;100271.56;5012354;28;20041;-60
2021/06/12 02:16:11;;;;;;;6.97;2.50;;;;;;;18.94;65.38;100271.59;5013494;28;20129;-60
2021/06/12 02:18:40;;;;;;;5.10;3.05;;;;;;;18.94;65.45;100268.06;5013462;28;20041;-61
2021/06/12 02:21:09;;;;;;;5.13;2.92;;;;;;;18.94;65.52;100273.31;5012200;28;20034;-60
2021/06/12 02:23:35;;;;;;;5.20;3.35;;;;;;;18.94;65.35;100273.31;5014659;28;20041;-60
2021/06/12 02:26:06;;;;;;;5.07;2.88;;;;;;;18.92;65.50;100275.13;5017350;28;20474;-60
2021/06/12 02:28:36;;;;;;;4.75;3.03;;;;;;;18.91;65.59;100273.38;5017509;28;20042;-60
2021/06/12 02:31:17;;;;;;;6.32;3.42;;;;;;;18.90;65.43;100279.53;4999930;28;20038;-62
2021/06/12 02:33:46;;;;;;;5.97;3.17;;;;;;;18.89;65.47;100275.16;4999878;28;20484;-62
2021/06/12 02:36:14;;;;;;;3.00;2.40;;;;;;;18.87;65.62;100286.53;5017043;28;20042;-61
2021/06/12 02:38:40;;;;;;;7.32;3.00;;;;;;;18.83;65.46;100297.97;5015878;28;20049;-62
2021/06/12 02:41:11;;;;;;;5.75;3.42;;;;;;;18.81;65.53;100294.50;5017127;28;20029;-62
2021/06/12 02:43:37;;;;;;;5.85;3.35;;;;;;;18.81;65.60;100289.25;5015532;28;20040;-62
2021/06/12 02:46:08;;;;;;;5.43;3.20;;;;;;;18.79;65.63;100293.66;5015590;28;20030;-62
2021/06/12 02:48:36;;;;;;;4.60;3.40;;;;;;;18.79;65.45;100292.78;5016218;28;20053;-62
2021/06/12 02:51:03;;;;;;;4.18;2.70;;;;;;;18.79;65.62;100298.03;5015486;28;20053;-62
2021/06/12 02:53:34;;;;;;;6.55;3.45;;;;;;;18.77;65.62;100298.03;5016898;28;20038;-62
2021/06/12 02:56:04;;;;;;;4.80;3.22;;;;;;;18.76;65.63;100300.72;5015764;28;20092;-62
2021/06/12 02:58:34;;;;;;;4.65;3.30;;;;;;;18.75;65.55;100299.84;5016206;28;20560;-62
2021/06/12 03:01:01;;;;;;;6.18;3.28;;;;;;;18.74;65.55;100300.75;5015193;28;20042;-62
2021/06/12 03:03:31;;;;;;;4.75;3.28;;;;;;;18.73;65.70;100304.25;5016855;28;20050;-60
2021/06/12 03:06:01;;;;;;;6.97;3.67;;;;;;;18.69;65.49;100292.91;5016598;28;20072;-61
2021/06/12 03:08:34;;;;;;;6.03;3.45;;;;;;;18.69;65.90;100300.78;5016263;28;20026;-60
2021/06/12 03:11:02;;;;;;;5.05;3.08;;;;;;;18.68;65.66;100300.81;4998730;28;20034;-61
2021/06/12 03:13:32;;;;;;;4.55;3.42;;;;;;;18.66;65.48;100310.47;5015599;28;20448;-60
2021/06/12 03:16:01;;;;;;;5.43;3.58;;;;;;;18.64;65.84;100317.47;5016320;28;20049;-60
2021/06/12 03:18:30;;;;;;;4.70;3.10;;;;;;;18.63;65.64;100323.63;5015409;28;20034;-60
2021/06/12 03:21:01;;;;;;;4.38;3.20;;;;;;;18.61;65.74;100320.16;5015439;28;20045;-60
2021/06/12 03:23:33;;;;;;;9.55;3.90;;;;;;;18.59;65.69;100330.66;5015650;28;20088;-60
2021/06/12 03:26:02;;;;;;;5.13;3.70;;;;;;;18.59;65.69;100330.66;5015509;28;20061;-60
2021/06/12 03:28:33;;;;;;;8.32;3.72;;;;;;;18.58;65.77;100328.06;5016101;28;20496;-60
2021/06/12 03:31:09;;;;;;;5.57;3.78;;;;;;;18.57;65.58;100329.81;4998526;28;20569;-60
2021/06/12 03:33:35;;;;;;;6.82;3.50;;;;;;;18.55;65.79;100332.47;5014996;28;20176;-61
2021/06/12 03:36:07;;;;;;;5.03;3.55;;;;;;;18.53;65.91;100334.25;4997741;28;20191;-61
2021/06/12 03:38:39;;;;;;;6.65;3.42;;;;;;;18.51;65.81;100330.75;4998932;28;20127;-61
2021/06/12 03:41:05;;;;;;;7.32;3.85;;;;;;;18.49;65.82;100335.16;5016345;28;20038;-62
2021/06/12 03:43:34;;;;;;;4.10;3.00;;;;;;;18.49;65.85;100337.78;5016141;28;20042;-62
2021/06/12 03:46:01;;;;;;;9.57;3.90;;;;;;;18.47;66.04;100336.94;5014357;28;20047;-60
2021/06/12 03:48:27;;;;;;;6.13;3.45;;;;;;;18.45;65.88;100340.47;5014099;28;20038;-60
2021/06/12 03:50:54;;;;;;;6.03;3.40;;;;;;;18.42;65.91;100330.88;5016024;28;20507;-62
2021/06/12 03:53:21;;;;;;;7.35;3.83;;;;;;;18.41;65.79;100327.38;5015417;28;20034;-61
2021/06/12 03:55:50;;;;;;;6.38;4.18;;;;;;;18.39;65.98;100330.91;5015561;28;20489;-62
2021/06/12 03:58:22;;;;;;;8.23;4.85;;;;;;;18.37;65.92;100333.53;5014518;28;20034;-60
2021/06/12 04:00:49;;;;;;;5.82;4.00;;;;;;;18.37;66.05;100343.19;5014438;28;20041;-61
2021/06/12 04:03:20;;;;;;;12.50;4.68;;;;;;;18.36;65.79;100341.44;5014189;28;20065;-60
2021/06/12 04:05:45;;;;;;;6.05;4.43;;;;;;;18.34;65.95;100330.97;5015871;28;20038;-61
2021/06/12 04:08:11;;;;;;;7.25;4.30;;;;;;;18.34;66.12;100330.09;5015284;28;20117;-61
2021/06/12 04:10:36;;;;;;;4.20;3.42;;;;;;;18.32;66.05;100317.00;5015431;28;20038;-60
2021/06/12 04:13:04;;;;;;;5.50;3.90;;;;;;;18.32;65.98;100316.13;5014159;28;20034;-61
2021/06/12 04:15:35;;;;;;;6.13;3.90;;;;;;;18.33;66.06;100323.09;5015325;28;20034;-60
2021/06/12 04:18:09;;;;;;;8.10;3.90;;;;;;;18.32;66.10;100318.75;5015529;28;20437;-61
2021/06/12 04:20:40;;;;;;;6.28;3.58;;;;;;;18.30;66.02;100308.28;5014059;28;20038;-61
2021/06/12 04:23:12;;;;;;;8.57;3.85;;;;;;;18.32;66.07;100316.13;5015527;28;20099;-60
2021/06/12 04:25:41;;;;;;;5.03;3.97;;;;;;;18.31;66.40;100323.13;5014277;28;20029;-61
2021/06/12 04:28:09;;;;;;;6.57;3.63;;;;;;;18.32;66.13;100319.63;5013684;28;20197;-62
2021/06/12 04:30:39;;;;;;;7.18;3.53;;;;;;;18.32;66.02;100313.50;5013620;28;20042;-61
2021/06/12 04:33:10;;;;;;;6.38;3.67;;;;;;;18.32;66.00;100317.00;5015364;28;20132;-60
2021/06/12 04:35:38;;;;;;;5.25;3.70;;;;;;;18.33;66.19;100316.13;5013683;28;20048;-61
2021/06/12 04:38:04;;;;;;;9.02;4.22;;;;;;;18.32;66.24;100309.13;5015098;28;20456;-60
2021/06/12 04:40:37;;;;;;;5.95;3.40;;;;;;;18.31;66.02;100303.88;5013492;28;20061;-60
2021/06/12 04:43:11;;;;;;;6.63;3.80;;;;;;;18.32;66.05;100292.50;5013391;28;20507;-61
2021/06/12 04:45:37;;;;;;;11.18;4.18;;;;;;;18.31;66.48;100296.00;5014104;28;20381;-60
2021/06/12 04:48:04;;;;;;;6.25;3.97;;;;;;;18.32;66.31;100309.13;4996409;28;20064;-60
2021/06/12 04:50:36;;;;;;;7.35;3.67;;;;;;;18.32;66.26;100318.75;5015034;28;20041;-61
2021/06/12 04:53:04;;;;;;;8.77;3.80;;;;;;;18.31;66.50;100322.25;5013179;28;20065;-60
2021/06/12 04:55:32;;;;;;;6.07;3.85;;;;;;;18.31;66.38;100304.78;5012871;28;20064;-60
2021/06/12 04:58:01;;;;;;;7.70;4.03;;;;;;;18.30;66.35;100313.53;5013900;28;20088;-60
2021/06/12 05:00:34;;;;;;;6.82;4.22;;;;;;;18.31;66.46;100314.38;5014585;28;20528;-60
2021/06/12 05:03:02;;;;;;;7.32;4.07;;;;;;;18.31;66.53;100319.63;5014769;28;20436;-62
2021/06/12 05:05:27;;;;;;;8.95;4.47;;;;;;;18.31;66.45;100322.25;5014327;28;20044;-62
2021/06/12 05:07:55;;;;;;;7.57;4.60;;;;;;;18.29;66.26;100313.56;5012835;28;20121;-62
2021/06/12 05:10:26;;;;;;;7.07;4.95;;;;;;;18.29;66.47;100316.19;5013575;28;20058;-62
2021/06/12 05:13:00;;;;;;;7.43;4.78;;;;;;;18.28;66.61;100312.69;5014986;28;20042;-62
2021/06/12 05:15:29;;;;;;;10.23;5.55;;;;;;;18.29;66.44;100317.03;5013024;28;20046;-62
2021/06/12 05:18:04;;;;;;;7.80;5.65;;;;;;;18.29;66.70;100314.41;4996836;28;20120;-62
2021/06/12 05:20:30;;;;;;;10.05;5.25;;;;;;;18.29;66.54;100322.28;5012783;28;20030;-62
2021/06/12 05:23:02;;;;;;;7.50;6.28;;;;;;;18.29;66.68;100318.81;5012824;28;20505;-61
2021/06/12 05:25:33;;;;;;;8.25;5.90;;;;;;;18.28;66.68;100333.66;5014389;28;20068;-61
2021/06/12 05:28:01;;;;;;;7.65;6.32;;;;;;;18.29;66.89;100331.91;5013106;28;20068;-62
2021/06/12 05:30:29;;;;;;;9.75;7.20;;;;;;;18.27;66.67;100318.81;5013878;28;20033;-62
2021/06/12 05:32:58;;;;;;;9.68;7.13;;;;;;;18.28;66.63;100312.69;4996266;28;20053;-62
2021/06/12 05:35:23;;;;;;;12.65;8.65;;;;;;;18.26;66.85;100307.47;5012383;28;20125;-61
2021/06/12 05:37:49;;;;;;;11.13;8.98;;;;;;;18.26;66.81;100311.81;5012871;28;20117;-61
2021/06/12 05:40:17;;;;;;;17.27;10.48;;;;;;;18.22;66.92;100311.00;5013789;28;20033;-62
2021/06/12 05:42:46;;;;;;;13.75;10.27;;;;;;;18.22;66.89;100321.50;5012865;28;20060;-62
2021/06/12 05:45:16;;;;;;;12.27;10.15;;;;;;;18.20;66.93;100331.13;5013851;28;20482;-62
2021/06/12 05:47:48;;;;;;;13.18;11.13;;;;;;;18.21;66.92;100327.63;5013271;28;20124;-62
2021/06/12 05:50:13;;;;;;;16.25;12.15;;;;;;;18.19;66.99;100332.00;5013743;28;20038;-62
2021/06/12 05:52:42;;;;;;;15.93;12.27;;;;;;;18.17;67.00;100344.25;5012534;28;20045;-62
2021/06/12 05:55:08;;;;;;;16.27;13.07;;;;;;;18.15;67.23;100340.78;5013468;28;20068;-61
2021/06/12 05:57:39;;;;;;;16.35;14.02;;;;;;;18.14;67.01;100348.69;5012421;28;20049;-62
2021/06/12 06:00:09;;;;;;;18.98;15.20;;;;;;;18.15;67.24;100353.03;5013488;28;20084;-62
2021/06/12 06:02:35;;;;;;;17.95;14.90;;;;;;;18.15;67.14;100355.66;5012526;28;20049;-62
2021/06/12 06:05:03;;;;;;;20.17;16.85;;;;;;;18.13;67.63;100355.69;5012310;28;20497;-62
2021/06/12 06:07:34;;;;;;;17.77;15.85;;;;;;;18.10;67.09;100363.59;5012376;28;20046;-62
2021/06/12 06:10:00;;;;;;;22.45;17.60;;;;;;;18.09;67.09;100365.31;5013587;28;20030;-62
2021/06/12 06:12:30;;;;;;;20.50;17.40;;;;;;;18.09;67.27;100378.44;5013605;28;20052;-62
2021/06/12 06:14:58;;;;;;;23.13;18.33;;;;;;;18.09;67.31;100377.59;5013545;28;20492;-63
2021/06/12 06:17:29;;;;;;;22.23;16.73;;;;;;;18.09;67.00;100372.34;5013489;28;20374;-62
2021/06/12 06:19:57;;;;;;;19.55;16.40;;;;;;;18.08;67.33;100368.81;5013358;28;20065;-62
2021/06/12 06:22:22;;;;;;;21.13;16.80;;;;;;;18.08;67.26;100368.81;5013274;28;20490;-62
2021/06/12 06:24:50;;;;;;;24.27;18.98;;;;;;;18.06;67.40;100377.59;5011925;28;20036;-62
2021/06/12 06:27:18;;;;;;;26.08;17.65;;;;;;;18.05;67.50;100397.72;5011682;28;20073;-62
2021/06/12 06:29:50;;;;;;;21.00;17.05;;;;;;;18.06;67.11;100393.34;5012182;28;20046;-61
2021/06/12 06:32:23;;;;;;;23.23;17.95;;;;;;;18.05;67.21;100388.97;5012308;28;20030;-62
2021/06/12 06:34:56;;;;;;;24.58;16.98;;;;;;;18.06;67.12;100386.31;5013060;28;20475;-62
2021/06/12 06:37:28;;;;;;;23.23;17.48;;;;;;;18.07;67.10;100389.84;5013485;28;20121;-62
2021/06/12 06:39:59;;;;;;;21.80;17.13;;;;;;;18.08;67.46;100394.19;4995777;28;20400;-62
2021/06/12 06:42:28;;;;;;;25.88;17.88;;;;;;;18.09;67.40;100385.44;5013348;28;20041;-61
2021/06/12 06:44:53;;;;;;;25.85;16.92;;;;;;;18.10;67.59;100389.81;5013625;28;20038;-62
2021/06/12 06:47:21;;;;;;;23.98;17.65;;;;;;;18.08;67.54;100396.81;4995531;28;20445;-61
2021/06/12 06:49:52;;;;;;;26.25;17.35;;;;;;;18.09;67.51;100393.31;5011490;28;20561;-62
2021/06/12 06:52:21;;;;;;;23.08;17.30;;;;;;;18.06;67.66;100404.69;5013534;28;20042;-61
2021/06/12 06:54:52;;;;;;;22.20;17.42;;;;;;;18.06;67.40;100411.69;5012884;28;20038;-62
2021/06/12 06:57:25;;;;;;;21.90;16.77;;;;;;;18.03;67.84;100415.22;5013355;28;20133;-62
2021/06/12 06:59:56;;;;;;;19.45;15.20;;;;;;;18.04;67.71;100416.09;5013035;28;20026;-62
2021/06/12 07:02:24;;;;;;;18.60;14.02;;;;;;;18.02;67.77;100421.34;5011549;28;20524;-62
2021/06/12 07:04:49;;;;;;;21.67;15.73;;;;;;;18.02;67.99;100429.22;5011935;28;20030;-61
2021/06/12 07:07:20;;;;;;;18.27;14.45;;;;;;;18.02;67.74;100426.59;5011533;28;20037;-62
2021/06/12 07:09:57;;;;;;;19.92;15.05;;;;;;;18.02;67.85;100436.19;5012540;28;20616;-62
2021/06/12 07:12:27;;;;;;;21.90;16.15;;;;;;;18.02;67.79;100430.97;5017032;28;20041;-62
2021/06/12 07:15:03;;;;;;;21.80;15.50;;;;;;;18.01;67.58;100435.34;5015260;28;20038;-62
2021/06/12 07:17:32;;;;;;;19.30;14.95;;;;;;;18.00;67.83;100438.84;5016343;28;20033;-62
2021/06/12 07:20:02;;;;;;;21.23;15.55;;;;;;;17.99;67.68;100438.84;5016599;28;20038;-62
2021/06/12 07:22:32;;;;;;;23.95;15.65;;;;;;;17.96;67.98;100437.97;5015084;28;20038;-62
2021/06/12 07:25:04;;;;;;;19.77;15.93;;;;;;;17.95;67.67;100445.84;5016089;28;20060;-62
2021/06/12 07:27:32;;;;;;;19.10;15.68;;;;;;;17.93;68.00;100440.63;5016446;28;20037;-62
2021/06/12 07:30:03;;;;;;;20.05;15.50;;;;;;;17.93;67.85;100432.75;5014568;28;20038;-62
2021/06/12 07:32:28;;;;;;;20.00;15.18;;;;;;;17.93;67.93;100430.13;5016437;28;20056;-62
2021/06/12 07:34:59;;;;;;;21.13;16.13;;;;;;;17.92;67.90;100431.00;5016023;28;20485;-62
2021/06/12 07:37:28;;;;;;;21.10;15.52;;;;;;;17.95;67.76;100438.88;5015976;28;20030;-62
2021/06/12 07:40:01;;;;;;;21.67;15.00;;;;;;;17.97;67.79;100428.34;5014507;28;20041;-62
2021/06/12 07:42:29;;;;;;;20.83;15.98;;;;;;;17.96;68.07;100429.22;4998566;28;20148;-61
2021/06/12 07:44:55;;;;;;;20.25;15.93;;;;;;;17.96;68.02;100437.97;5015560;28;20088;-62
2021/06/12 07:47:26;;;;;;;24.15;16.23;;;;;;;17.96;68.00;100427.50;5015788;28;20045;-62
2021/06/12 07:49:51;;;;;;;22.42;16.75;;;;;;;17.96;68.23;100422.25;5014503;28;20050;-62
2021/06/12 07:52:25;;;;;;;22.42;16.23;;;;;;;17.96;67.89;100421.34;5014611;28;20072;-62
2021/06/12 07:54:54;;;;;;;23.38;17.02;;;;;;;17.96;68.06;100423.97;5015942;28;20103;-62
2021/06/12 07:57:22;;;;;;;21.25;16.42;;;;;;;17.97;68.27;100425.72;4998680;28;20520;-63
2021/06/12 07:59:47;;;;;;;19.13;16.02;;;;;;;17.99;68.23;100438.84;5014545;28;20037;-62
2021/06/12 08:02:13;;;;;;;21.70;16.60;;;;;;;17.98;68.30;100435.38;5014015;28;20057;-62
2021/06/12 08:04:38;;;;;;;20.85;16.52;;;;;;;17.99;68.03;100444.09;5015607;28;20116;-62
2021/06/12 08:07:07;;;;;;;21.45;17.20;;;;;;;17.98;68.03;100442.38;5014382;28;20038;-62
2021/06/12 08:09:36;;;;;;;23.52;17.05;;;;;;;17.99;68.24;100438.84;5015505;28;20034;-62
2021/06/12 08:12:04;;;;;;;21.05;15.48;;;;;;;17.99;68.27;100446.72;4997778;28;20080;-62
2021/06/12 08:14:33;;;;;;;24.30;17.25;;;;;;;17.99;68.09;100451.94;5015380;28;20485;-62
2021/06/12 08:17:01;;;;;;;22.80;17.13;;;;;;;17.99;68.16;100444.97;5014932;28;20489;-62
2021/06/12 08:19:30;;;;;;;25.38;16.58;;;;;;;17.99;68.33;100454.56;5015270;28;20044;-62
2021/06/12 08:21:58;;;;;;;23.60;17.23;;;;;;;17.98;68.37;100450.25;5014876;28;20060;-62
2021/06/12 08:24:26;;;;;;;21.17;16.77;;;;;;;17.97;68.24;100457.19;5014878;28;20060;-62
2021/06/12 08:26:51;;;;;;;24.27;16.95;;;;;;;17.97;68.35;100451.94;5015415;28;20092;-62
2021/06/12 08:29:19;;;;;;;24.90;18.42;;;;;;;17.98;68.47;100445.00;5014765;28;20042;-62
2021/06/12 08:31:50;;;;;;;22.90;16.70;;;;;;;17.98;68.17;100448.47;5013497;28;20038;-62
2021/06/12 08:34:17;;;;;;;25.75;17.33;;;;;;;17.98;68.30;100451.09;5013917;28;20041;-62
2021/06/12 08:36:43;;;;;;;26.88;19.38;;;;;;;17.99;68.23;100452.84;5013331;28;20038;-61
2021/06/12 08:39:08;;;;;;;25.58;18.20;;;;;;;17.99;68.28;100450.22;4997330;28;20515;-62
2021/06/12 08:41:37;;;;;;;23.15;17.20;;;;;;;18.01;68.46;100448.47;5015347;28;20049;-62
2021/06/12 08:44:05;;;;;;;22.95;17.95;;;;;;;18.02;68.42;100454.56;5013592;28;20058;-62
2021/06/12 08:46:34;;;;;;;23.05;17.83;;;;;;;18.01;68.39;100458.06;5013627;28;20108;-61
2021/06/12 08:49:03;;;;;;;28.52;18.15;;;;;;;18.03;68.38;100456.28;4997757;28;20030;-62
2021/06/12 08:51:31;;;;;;;27.35;18.63;;;;;;;18.03;68.54;100459.81;5013609;28;20118;-62
2021/06/12 08:53:56;;;;;;;26.05;17.13;;;;;;;18.04;68.40;100463.28;5014626;28;20038;-62
2021/06/12 08:56:22;;;;;;;27.45;19.38;;;;;;;18.03;68.62;100464.16;5013884;28;20056;-62
2021/06/12 08:58:50;;;;;;;24.60;18.42;;;;;;;18.02;68.48;100463.31;5013762;28;20038;-61
2021/06/12 09:01:21;;;;;;;25.45;19.23;;;;;;;18.00;68.58;100467.69;5014235;28;20033;-61
2021/06/12 09:03:52;;;;;;;27.77;18.65;;;;;;;18.02;68.65;100465.94;4996781;28;20037;-63
2021/06/12 09:06:22;;;;;;;26.48;18.38;;;;;;;18.05;68.34;100465.91;4996856;28;20405;-62
2021/06/12 09:08:53;;;;;;;27.73;18.52;;;;;;;18.05;68.77;100470.28;5013098;28;20037;-62
2021/06/12 09:11:19;;;;;;;26.90;19.17;;;;;;;18.06;68.63;100474.63;5013577;28;20484;-62
2021/06/12 09:13:54;;;;;;;28.75;19.75;;;;;;;18.04;68.46;100466.78;5014146;28;20030;-62
2021/06/12 09:16:33;;;;;;;27.60;18.83;;;;;;;18.04;68.62;100461.56;5012970;28;20523;-62
2021/06/12 09:19:23;;;;;;;33.10;21.80;;;;;;;18.06;68.66;100467.63;5014211;28;20041;-62
2021/06/12 09:21:57;;;;;;;28.95;19.40;;;;;;;18.07;68.67;100466.75;5013392;28;20049;-62
2021/06/12 09:24:37;;;;;;;31.52;19.83;;;;;;;18.04;68.83;100469.41;5014053;28;20054;-62
2021/06/12 09:27:16;;;;;;;27.98;20.92;;;;;;;18.02;68.77;100468.56;5014166;28;20095;-62
2021/06/12 09:29:46;;;;;;;29.45;19.65;;;;;;;18.02;68.80;100468.56;5013205;28;20037;-62
2021/06/12 09:32:26;;;;;;;27.63;19.58;;;;;;;18.03;68.63;100478.16;4996470;28;20187;-62
2021/06/12 09:34:58;;;;;;;27.70;20.80;;;;;;;18.05;69.00;100476.41;4996477;28;20124;-62
2021/06/12 09:37:27;;;;;;;28.38;20.30;;;;;;;18.07;69.07;100484.25;5013133;28;20041;-62
2021/06/12 09:40:07;;;;;;;26.95;20.33;;;;;;;18.06;68.96;100465.00;5013629;28;20036;-62
2021/06/12 09:42:55;;;;;;;27.73;20.38;;;;;;;18.08;68.74;100463.25;5014124;28;20490;-62
2021/06/12 09:45:26;;;;;;;31.05;20.63;;;;;;;18.09;69.00;100475.47;5013659;28;20038;-62
2021/06/12 09:48:14;;;;;;;29.35;20.60;;;;;;;18.10;68.86;100478.97;4996309;28;20035;-62
2021/06/12 09:50:46;;;;;;;28.63;20.80;;;;;;;18.10;69.06;100482.47;5012535;28;20480;-62
2021/06/12 09:53:17;;;;;;;27.30;19.52;;;;;;;18.14;69.21;100482.44;5013858;28;20038;-62
2021/06/12 09:55:49;;;;;;;26.00;19.75;;;;;;;18.14;68.91;100483.28;5013029;28;20071;-62
2021/06/12 09:58:17;;;;;;;29.30;20.90;;;;;;;18.16;69.26;100486.78;5013804;28;20477;-61
2021/06/12 10:00:48;;;;;;;29.90;21.27;;;;;;;18.20;69.10;100488.50;5012252;28;20041;-62
2021/06/12 10:03:27;;;;;;;25.35;18.30;;;;;;;18.19;69.21;100494.63;5013777;28;20045;-62
2021/06/12 10:06:21;;;;;;;24.55;17.95;;;;;;;18.19;69.25;100483.28;5013579;28;20038;-62
2021/06/12 10:08:50;;;;;;;26.75;19.13;;;;;;;18.20;69.04;100485.03;5012641;28;20038;-62
2021/06/12 10:11:19;;;;;;;25.15;17.90;;;;;;;18.21;69.15;100486.78;5012409;28;20041;-62
2021/06/12 10:13:45;;;;;;;23.85;17.63;;;;;;;18.20;69.22;100491.13;5013575;28;20148;-62
2021/06/12 10:16:15;;;;;;;21.58;17.08;;;;;;;18.21;69.13;100494.63;5013846;28;20073;-62
2021/06/12 10:18:45;;;;;;;25.70;18.15;;;;;;;18.20;69.25;100496.38;4996092;28;20040;-62
2021/06/12 10:21:16;;;;;;;28.60;19.02;;;;;;;18.20;69.19;100492.91;4995930;28;20107;-62
2021/06/12 10:23:44;;;;;;;28.92;18.15;;;;;;;18.19;69.32;100492.00;5013681;28;20034;-62
2021/06/12 10:26:12;;;;;;;26.02;18.08;;;;;;;18.20;69.13;100500.75;5012306;28;20042;-62
2021/06/12 10:28:40;;;;;;;25.55;18.75;;;;;;;18.19;69.39;100502.50;5012471;28;20097;-62
2021/06/12 10:31:10;;;;;;;21.85;17.35;;;;;;;18.21;69.29;100502.50;5013257;28;20086;-62
2021/06/12 10:33:39;;;;;;;23.83;18.63;;;;;;;18.21;69.13;100506.00;5013411;28;20081;-62
2021/06/12 10:36:17;;;;;;;26.38;18.90;;;;;;;18.19;69.06;100507.75;5012077;28;20042;-62
2021/06/12 10:38:44;;;;;;;25.92;18.17;;;;;;;18.21;69.22;100513.00;5013335;28;20066;-62
2021/06/12 10:41:31;;;;;;;26.17;18.75;;;;;;;18.20;69.08;100501.63;5013370;28;20049;-62
2021/06/12 10:43:59;;;;;;;27.90;18.75;;;;;;;18.22;69.33;100502.47;5014633;28;20048;-61
2021/06/12 10:46:28;;;;;;;25.73;18.10;;;;;;;18.23;69.48;100505.97;5015813;28;20464;-62
2021/06/12 10:48:59;;;;;;;26.05;18.35;;;;;;;18.25;69.37;100512.97;5015721;28;20041;-61
2021/06/12 10:51:25;;;;;;;24.52;18.50;;;;;;;18.26;69.45;100505.94;5015603;28;20456;-62
2021/06/12 10:54:08;;;;;;;22.50;18.17;;;;;;;18.28;68.90;100513.81;5015678;28;20071;-62
2021/06/12 10:56:39;;;;;;;21.88;17.50;;;;;;;18.29;69.27;100507.69;5015622;28;20125;-62
2021/06/12 10:59:09;;;;;;;20.95;16.90;;;;;;;18.31;69.31;100500.66;5015492;28;20041;-62
2021/06/12 11:01:35;;;;;;;24.45;18.50;;;;;;;18.33;69.51;100502.41;5015912;28;20054;-61
2021/06/12 11:04:09;;;;;;;25.58;19.25;;;;;;;18.35;69.33;100505.00;5016839;28;20041;-61
2021/06/12 11:09:19;;;;;;;24.08;17.92;;;;;;;18.38;69.44;100504.97;5016845;28;20042;-61
2021/06/12 11:11:56;;;;;;;23.95;18.20;;;;;;;18.38;69.21;100504.97;4999209;28;20434;-62
2021/06/12 11:14:24;;;;;;;24.17;17.75;;;;;;;18.38;69.36;100505.81;5015443;28;20113;-62
2021/06/12 11:19:40;;;;;;;19.70;16.38;;;;;;;18.39;69.32;100498.84;5016358;28;20037;-62
2021/06/12 11:22:39;;;;;;;25.25;17.75;;;;;;;18.40;69.19;100500.59;4998855;28;20064;-62
2021/06/12 11:25:07;;;;;;;21.40;17.15;;;;;;;18.39;69.27;100499.69;5016283;28;20030;-62
2021/06/12 11:27:40;;;;;;;24.17;17.10;;;;;;;18.38;69.35;100491.84;5015391;28;20133;-61
2021/06/12 11:30:21;;;;;;;21.95;17.60;;;;;;;18.40;69.48;100496.19;5016187;28;20034;-61
2021/06/12 11:32:55;;;;;;;21.35;16.67;;;;;;;18.39;69.35;100497.06;5014970;28;20041;-61
2021/06/12 11:35:42;;;;;;;21.88;17.83;;;;;;;18.42;69.38;100498.81;5016368;28;20172;-61